sensor_id;sensor_type;location;lat;lon;timestamp;pressure;altitude;pressure_sealevel;temperature;humidity
52032;BME280;38044;45.148;39.604;2023-04-25T00:02:21;100656.88;;;10.78;81.35
52032;BME280;38044;45.148;39.604;2023-04-25T00:04:47;100755.47;;;11.44;81.39
52032;BME280;38044;45.148;39.604;2023-04-25T00:07:17;100728.28;;;11.27;81.78
52032;BME280;38044;45.148;39.604;2023-04-25T00:09:43;100590.47;;;10.35;81.71
52032;BME280;38044;45.148;39.604;2023-04-25T00:12:09;100731.69;;;11.33;81.69
52032;BME280;38044;45.148;39.604;2023-04-25T00:14:35;100729.72;;;11.38;81.81
52032;BME280;38044;45.148;39.604;2023-04-25T00:17:01;100732.16;;;11.40;81.51
52032;BME280;38044;45.148;39.604;2023-04-25T00:19:28;100705.59;;;11.33;81.10
52032;BME280;38044;45.148;39.604;2023-04-25T00:21:57;100705.31;;;11.35;81.10
52032;BME280;38044;45.148;39.604;2023-04-25T00:24:22;100713.69;;;11.33;80.93
52032;BME280;38044;45.148;39.604;2023-04-25T00:26:48;100764.94;;;11.61;80.91
52032;BME280;38044;45.148;39.604;2023-04-25T00:29:14;100777.03;;;11.63;81.11
52032;BME280;38044;45.148;39.604;2023-04-25T00:31:40;100736.88;;;11.48;81.09
52032;BME280;38044;45.148;39.604;2023-04-25T00:34:06;100731.41;;;11.34;80.94
52032;BME280;38044;45.148;39.604;2023-04-25T00:36:33;100667.50;;;10.88;81.26
52032;BME280;38044;45.148;39.604;2023-04-25T00:38:59;100767.69;;;11.56;81.07
52032;BME280;38044;45.148;39.604;2023-04-25T00:41:25;100785.69;;;11.60;81.57
52032;BME280;38044;45.148;39.604;2023-04-25T00:43:54;100769.31;;;11.57;81.63
52032;BME280;38044;45.148;39.604;2023-04-25T00:46:20;100782.13;;;11.65;81.60
52032;BME280;38044;45.148;39.604;2023-04-25T00:48:46;100786.09;;;11.67;81.25
52032;BME280;38044;45.148;39.604;2023-04-25T00:51:16;100630.94;;;10.68;81.70
52032;BME280;38044;45.148;39.604;2023-04-25T00:53:45;100783.19;;;11.64;81.95
52032;BME280;38044;45.148;39.604;2023-04-25T00:56:11;100746.25;;;11.32;81.57
52032;BME280;38044;45.148;39.604;2023-04-25T00:58:37;100699.50;;;11.09;81.74
52032;BME280;38044;45.148;39.604;2023-04-25T01:01:04;100773.09;;;11.56;82.23
52032;BME280;38044;45.148;39.604;2023-04-25T01:03:32;100682.34;;;11.04;81.94
52032;BME280;38044;45.148;39.604;2023-04-25T01:05:58;100642.94;;;10.76;81.85
52032;BME280;38044;45.148;39.604;2023-04-25T01:08:24;100756.94;;;11.56;82.16
52032;BME280;38044;45.148;39.604;2023-04-25T01:10:53;100688.41;;;11.10;82.17
52032;BME280;38044;45.148;39.604;2023-04-25T01:13:19;100757.81;;;11.51;82.36
52032;BME280;38044;45.148;39.604;2023-04-25T01:15:45;100779.44;;;11.65;82.34
52032;BME280;38044;45.148;39.604;2023-04-25T01:18:11;100722.31;;;11.30;82.64
52032;BME280;38044;45.148;39.604;2023-04-25T01:20:38;100619.97;;;10.65;82.54
52032;BME280;38044;45.148;39.604;2023-04-25T01:23:06;100763.13;;;11.56;82.85
52032;BME280;38044;45.148;39.604;2023-04-25T01:25:32;100730.91;;;11.32;83.00
52032;BME280;38044;45.148;39.604;2023-04-25T01:27:58;100762.25;;;11.61;83.11
52032;BME280;38044;45.148;39.604;2023-04-25T01:30:26;100743.91;;;11.44;82.91
52032;BME280;38044;45.148;39.604;2023-04-25T01:32:55;100725.69;;;11.22;83.13
52032;BME280;38044;45.148;39.604;2023-04-25T01:35:22;100766.09;;;11.55;83.29
52032;BME280;38044;45.148;39.604;2023-04-25T01:37:49;100741.09;;;11.35;83.63
52032;BME280;38044;45.148;39.604;2023-04-25T01:40:15;100763.00;;;11.47;83.62
52032;BME280;38044;45.148;39.604;2023-04-25T01:42:42;100769.91;;;11.54;83.53
52032;BME280;38044;45.148;39.604;2023-04-25T01:45:09;100742.97;;;11.35;83.54
52032;BME280;38044;45.148;39.604;2023-04-25T01:47:36;100660.06;;;10.80;83.84
52032;BME280;38044;45.148;39.604;2023-04-25T01:50:04;100775.50;;;11.57;84.03
52032;BME280;38044;45.148;39.604;2023-04-25T01:52:30;100660.50;;;10.87;83.96
52032;BME280;38044;45.148;39.604;2023-04-25T01:54:57;100771.94;;;11.62;84.01
52032;BME280;38044;45.148;39.604;2023-04-25T01:57:25;100777.31;;;11.62;83.75
52032;BME280;38044;45.148;39.604;2023-04-25T01:59:51;100644.22;;;10.78;83.86
52032;BME280;38044;45.148;39.604;2023-04-25T02:02:17;100762.03;;;11.57;83.98
52032;BME280;38044;45.148;39.604;2023-04-25T02:04:43;100777.31;;;11.62;83.87
52032;BME280;38044;45.148;39.604;2023-04-25T02:07:09;100658.69;;;10.82;83.69
52032;BME280;38044;45.148;39.604;2023-04-25T02:09:34;100768.44;;;11.42;83.94
52032;BME280;38044;45.148;39.604;2023-04-25T02:12:00;100783.78;;;11.61;84.12
52032;BME280;38044;45.148;39.604;2023-04-25T02:14:27;100774.97;;;11.55;83.81
52032;BME280;38044;45.148;39.604;2023-04-25T02:16:54;100701.31;;;11.13;83.90
52032;BME280;38044;45.148;39.604;2023-04-25T02:19:19;100735.34;;;11.23;84.12
52032;BME280;38044;45.148;39.604;2023-04-25T02:21:45;100784.97;;;11.55;84.38
52032;BME280;38044;45.148;39.604;2023-04-25T02:24:11;100787.66;;;11.55;84.44
52032;BME280;38044;45.148;39.604;2023-04-25T02:26:37;100673.16;;;10.87;84.38
52032;BME280;38044;45.148;39.604;2023-04-25T02:29:03;100793.03;;;11.55;84.42
52032;BME280;38044;45.148;39.604;2023-04-25T02:31:28;100736.44;;;11.22;84.44
52032;BME280;38044;45.148;39.604;2023-04-25T02:33:54;100670.88;;;10.75;84.26
52032;BME280;38044;45.148;39.604;2023-04-25T02:36:20;100776.59;;;11.37;84.54
52032;BME280;38044;45.148;39.604;2023-04-25T02:38:46;100697.13;;;10.83;84.48
52032;BME280;38044;45.148;39.604;2023-04-25T02:41:12;100764.13;;;11.41;84.05
52032;BME280;38044;45.148;39.604;2023-04-25T02:43:37;100719.84;;;11.15;83.98
52032;BME280;38044;45.148;39.604;2023-04-25T02:46:03;100723.06;;;11.17;83.60
52032;BME280;38044;45.148;39.604;2023-04-25T02:48:29;100797.19;;;11.66;83.37
52032;BME280;38044;45.148;39.604;2023-04-25T02:50:55;100789.25;;;11.56;83.17
52032;BME280;38044;45.148;39.604;2023-04-25T02:53:21;100813.19;;;11.76;83.08
52032;BME280;38044;45.148;39.604;2023-04-25T02:55:46;100810.50;;;11.76;82.85
52032;BME280;38044;45.148;39.604;2023-04-25T02:58:12;100817.47;;;11.77;82.45
52032;BME280;38044;45.148;39.604;2023-04-25T03:00:38;100812.47;;;11.70;82.13
52032;BME280;38044;45.148;39.604;2023-04-25T03:03:04;100791.66;;;11.57;82.16
52032;BME280;38044;45.148;39.604;2023-04-25T03:05:30;100774.69;;;11.57;81.74
52032;BME280;38044;45.148;39.604;2023-04-25T03:07:56;100825.41;;;11.87;81.48
52032;BME280;38044;45.148;39.604;2023-04-25T03:10:21;100801.47;;;11.67;81.69
52032;BME280;38044;45.148;39.604;2023-04-25T03:12:47;100826.28;;;11.83;81.59
52032;BME280;38044;45.148;39.604;2023-04-25T03:15:13;100728.38;;;11.22;81.71
52032;BME280;38044;45.148;39.604;2023-04-25T03:17:39;100846.69;;;11.89;81.67
52032;BME280;38044;45.148;39.604;2023-04-25T03:20:05;100778.31;;;11.66;81.21
52032;BME280;38044;45.148;39.604;2023-04-25T03:22:33;100771.94;;;11.62;80.99
52032;BME280;38044;45.148;39.604;2023-04-25T03:24:59;100826.59;;;12.00;80.75
52032;BME280;38044;45.148;39.604;2023-04-25T03:27:25;100668.59;;;11.06;80.07
52032;BME280;38044;45.148;39.604;2023-04-25T03:29:51;100787.06;;;11.77;79.59
52032;BME280;38044;45.148;39.604;2023-04-25T03:32:17;100813.41;;;11.99;79.33
52032;BME280;38044;45.148;39.604;2023-04-25T03:34:42;100810.03;;;12.07;79.10
52032;BME280;38044;45.148;39.604;2023-04-25T03:37:08;100787.03;;;11.95;78.70
52032;BME280;38044;45.148;39.604;2023-04-25T03:39:34;100839.69;;;12.39;78.57
52032;BME280;38044;45.148;39.604;2023-04-25T03:42:00;100846.09;;;12.44;78.37
52032;BME280;38044;45.148;39.604;2023-04-25T03:44:26;100676.00;;;11.33;77.94
52032;BME280;38044;45.148;39.604;2023-04-25T03:46:52;100834.91;;;12.36;78.01
52032;BME280;38044;45.148;39.604;2023-04-25T03:49:17;100811.91;;;12.25;78.24
52032;BME280;38044;45.148;39.604;2023-04-25T03:51:43;100846.00;;;12.49;78.06
52032;BME280;38044;45.148;39.604;2023-04-25T03:54:09;100819.19;;;12.38;78.10
52032;BME280;38044;45.148;39.604;2023-04-25T03:56:38;100818.53;;;12.47;78.28
52032;BME280;38044;45.148;39.604;2023-04-25T03:59:04;100842.94;;;12.69;77.57
52032;BME280;38044;45.148;39.604;2023-04-25T04:01:29;100696.22;;;11.82;77.35
52032;BME280;38044;45.148;39.604;2023-04-25T04:03:55;100797.56;;;12.44;77.83
52032;BME280;38044;45.148;39.604;2023-04-25T04:06:21;100771.34;;;12.30;77.59
52032;BME280;38044;45.148;39.604;2023-04-25T04:08:47;100742.91;;;12.10;77.61
52032;BME280;38044;45.148;39.604;2023-04-25T04:11:13;100845.34;;;12.71;77.53
52032;BME280;38044;45.148;39.604;2023-04-25T04:13:38;100811.56;;;12.73;77.14
52032;BME280;38044;45.148;39.604;2023-04-25T04:16:04;100842.03;;;12.88;76.59
52032;BME280;38044;45.148;39.604;2023-04-25T04:18:30;100814.25;;;12.73;76.25
52032;BME280;38044;45.148;39.604;2023-04-25T04:20:58;100685.19;;;11.98;75.67
52032;BME280;38044;45.148;39.604;2023-04-25T04:23:24;100830.16;;;12.89;76.06
52032;BME280;38044;45.148;39.604;2023-04-25T04:25:52;100808.16;;;12.81;75.75
52032;BME280;38044;45.148;39.604;2023-04-25T04:28:19;100805.38;;;12.73;75.04
52032;BME280;38044;45.148;39.604;2023-04-25T04:30:46;100769.22;;;12.60;74.77
52032;BME280;38044;45.148;39.604;2023-04-25T04:33:11;100805.59;;;12.76;75.13
52032;BME280;38044;45.148;39.604;2023-04-25T04:35:38;100800.97;;;12.63;74.82
52032;BME280;38044;45.148;39.604;2023-04-25T04:38:03;100793.28;;;12.56;74.88
52032;BME280;38044;45.148;39.604;2023-04-25T04:40:29;100680.31;;;12.00;75.52
52032;BME280;38044;45.148;39.604;2023-04-25T04:42:58;100824.16;;;13.19;73.48
52032;BME280;38044;45.148;39.604;2023-04-25T04:45:24;100827.34;;;13.07;73.62
52032;BME280;38044;45.148;39.604;2023-04-25T04:47:51;100821.94;;;13.21;73.50
52032;BME280;38044;45.148;39.604;2023-04-25T04:50:16;100734.44;;;12.72;73.05
52032;BME280;38044;45.148;39.604;2023-04-25T04:52:43;100809.97;;;13.27;72.73
52032;BME280;38044;45.148;39.604;2023-04-25T04:55:09;100844.34;;;13.49;72.80
52032;BME280;38044;45.148;39.604;2023-04-25T04:57:35;100802.06;;;13.17;72.40
52032;BME280;38044;45.148;39.604;2023-04-25T05:00:01;100797.09;;;12.97;72.65
52032;BME280;38044;45.148;39.604;2023-04-25T05:02:30;100818.56;;;13.02;73.16
52032;BME280;38044;45.148;39.604;2023-04-25T05:04:56;100840.97;;;13.16;73.28
52032;BME280;38044;45.148;39.604;2023-04-25T05:07:22;100796.78;;;12.84;73.29
52032;BME280;38044;45.148;39.604;2023-04-25T05:09:57;100744.03;;;12.78;73.04
52032;BME280;38044;45.148;39.604;2023-04-25T05:12:23;100835.63;;;14.34;71.27
52032;BME280;38044;45.148;39.604;2023-04-25T05:14:48;100805.47;;;16.63;64.35
52032;BME280;38044;45.148;39.604;2023-04-25T05:17:14;100854.22;;;17.27;61.64
52032;BME280;38044;45.148;39.604;2023-04-25T05:19:40;100852.50;;;16.84;62.37
52032;BME280;38044;45.148;39.604;2023-04-25T05:22:06;100855.47;;;16.53;62.35
52032;BME280;38044;45.148;39.604;2023-04-25T05:24:32;100828.59;;;16.05;63.49
52032;BME280;38044;45.148;39.604;2023-04-25T05:26:57;100853.28;;;17.23;62.12
52032;BME280;38044;45.148;39.604;2023-04-25T05:29:23;100722.56;;;18.61;57.25
52032;BME280;38044;45.148;39.604;2023-04-25T05:31:49;100840.13;;;19.90;55.51
52032;BME280;38044;45.148;39.604;2023-04-25T05:34:15;100847.94;;;20.19;53.64
52032;BME280;38044;45.148;39.604;2023-04-25T05:36:42;100833.53;;;19.38;53.54
52032;BME280;38044;45.148;39.604;2023-04-25T05:39:07;100842.66;;;18.02;56.49
52032;BME280;38044;45.148;39.604;2023-04-25T05:41:34;100855.25;;;17.14;59.38
52032;BME280;38044;45.148;39.604;2023-04-25T05:44:00;100824.56;;;16.75;60.45
52032;BME280;38044;45.148;39.604;2023-04-25T05:46:26;100843.41;;;16.89;60.30
52032;BME280;38044;45.148;39.604;2023-04-25T05:48:51;100838.94;;;16.84;60.37
52032;BME280;38044;45.148;39.604;2023-04-25T05:51:17;100728.53;;;16.59;59.31
52032;BME280;38044;45.148;39.604;2023-04-25T05:53:43;100837.00;;;17.23;60.16
52032;BME280;38044;45.148;39.604;2023-04-25T05:56:09;100824.22;;;17.45;59.76
52032;BME280;38044;45.148;39.604;2023-04-25T05:58:35;100834.66;;;19.49;55.74
52032;BME280;38044;45.148;39.604;2023-04-25T06:01:01;100838.44;;;20.89;50.50
52032;BME280;38044;45.148;39.604;2023-04-25T06:03:28;100849.00;;;20.90;49.78
52032;BME280;38044;45.148;39.604;2023-04-25T06:05:54;100844.84;;;20.65;49.96
52032;BME280;38044;45.148;39.604;2023-04-25T06:08:19;100841.16;;;20.73;49.57
52032;BME280;38044;45.148;39.604;2023-04-25T06:10:45;100836.38;;;21.53;46.41
52032;BME280;38044;45.148;39.604;2023-04-25T06:13:11;100828.44;;;22.06;46.53
52032;BME280;38044;45.148;39.604;2023-04-25T06:15:37;100827.28;;;22.26;44.72
52032;BME280;38044;45.148;39.604;2023-04-25T06:18:03;100836.25;;;22.46;45.59
52032;BME280;38044;45.148;39.604;2023-04-25T06:20:28;100805.84;;;23.01;44.55
52032;BME280;38044;45.148;39.604;2023-04-25T06:22:57;100816.91;;;23.38;43.70
52032;BME280;38044;45.148;39.604;2023-04-25T06:25:23;100776.41;;;22.98;42.03
52032;BME280;38044;45.148;39.604;2023-04-25T06:27:49;100744.81;;;22.32;43.69
52032;BME280;38044;45.148;39.604;2023-04-25T06:30:15;100774.00;;;23.23;43.14
52032;BME280;38044;45.148;39.604;2023-04-25T06:32:43;100838.28;;;23.86;41.98
52032;BME280;38044;45.148;39.604;2023-04-25T06:35:09;100835.06;;;23.20;43.39
52032;BME280;38044;45.148;39.604;2023-04-25T06:37:35;100836.50;;;22.61;44.80
52032;BME280;38044;45.148;39.604;2023-04-25T06:40:01;100839.88;;;23.27;43.93
52032;BME280;38044;45.148;39.604;2023-04-25T06:42:27;100839.44;;;23.55;42.39
52032;BME280;38044;45.148;39.604;2023-04-25T06:44:53;100845.03;;;23.62;42.24
52032;BME280;38044;45.148;39.604;2023-04-25T06:47:19;100759.94;;;22.71;42.06
52032;BME280;38044;45.148;39.604;2023-04-25T06:49:45;100844.47;;;23.49;41.71
52032;BME280;38044;45.148;39.604;2023-04-25T06:52:11;100835.66;;;23.33;41.44
52032;BME280;38044;45.148;39.604;2023-04-25T06:54:36;100755.09;;;22.88;41.39
52032;BME280;38044;45.148;39.604;2023-04-25T06:57:02;100853.69;;;24.32;40.03
52032;BME280;38044;45.148;39.604;2023-04-25T06:59:28;100815.69;;;24.82;38.89
52032;BME280;38044;45.148;39.604;2023-04-25T07:01:54;100883.81;;;25.06;38.96
52032;BME280;38044;45.148;39.604;2023-04-25T07:04:20;100869.47;;;24.79;38.79
52032;BME280;38044;45.148;39.604;2023-04-25T07:06:45;100873.91;;;23.79;40.47
52032;BME280;38044;45.148;39.604;2023-04-25T07:09:12;100789.28;;;21.82;43.09
52032;BME280;38044;45.148;39.604;2023-04-25T07:11:38;100844.47;;;21.14;45.50
52032;BME280;38044;45.148;39.604;2023-04-25T07:14:04;100768.78;;;20.51;46.50
52032;BME280;38044;45.148;39.604;2023-04-25T07:16:30;100756.72;;;20.36;46.77
52032;BME280;38044;45.148;39.604;2023-04-25T07:18:56;100895.09;;;20.76;47.88
52032;BME280;38044;45.148;39.604;2023-04-25T07:21:22;100878.25;;;20.30;48.65
52032;BME280;38044;45.148;39.604;2023-04-25T07:23:48;100893.84;;;20.74;47.99
52032;BME280;38044;45.148;39.604;2023-04-25T07:26:13;100870.59;;;20.36;49.11
52032;BME280;38044;45.148;39.604;2023-04-25T07:28:39;100882.66;;;20.95;47.34
52032;BME280;38044;45.148;39.604;2023-04-25T07:31:05;100885.38;;;21.26;46.02
52032;BME280;38044;45.148;39.604;2023-04-25T07:33:31;100750.50;;;20.36;46.09
52032;BME280;38044;45.148;39.604;2023-04-25T07:35:57;100901.34;;;20.92;47.11
52032;BME280;38044;45.148;39.604;2023-04-25T07:38:23;100897.91;;;20.08;47.84
52032;BME280;38044;45.148;39.604;2023-04-25T07:40:49;100897.81;;;19.39;49.82
52032;BME280;38044;45.148;39.604;2023-04-25T07:43:15;100897.59;;;20.25;48.51
52032;BME280;38044;45.148;39.604;2023-04-25T07:45:48;100778.16;;;21.52;44.53
52032;BME280;38044;45.148;39.604;2023-04-25T07:48:17;100902.09;;;22.96;43.76
52032;BME280;38044;45.148;39.604;2023-04-25T07:50:46;100906.75;;;24.02;42.43
52032;BME280;38044;45.148;39.604;2023-04-25T07:53:12;100899.75;;;24.83;40.35
52032;BME280;38044;45.148;39.604;2023-04-25T07:55:38;100896.75;;;25.02;39.36
52032;BME280;38044;45.148;39.604;2023-04-25T07:58:06;100891.47;;;25.27;38.31
52032;BME280;38044;45.148;39.604;2023-04-25T08:00:32;100892.41;;;25.56;38.35
52032;BME280;38044;45.148;39.604;2023-04-25T08:02:58;100771.63;;;24.67;37.21
52032;BME280;38044;45.148;39.604;2023-04-25T08:05:24;100892.34;;;24.90;39.34
52032;BME280;38044;45.148;39.604;2023-04-25T08:07:49;100898.06;;;24.00;41.01
52032;BME280;38044;45.148;39.604;2023-04-25T08:10:16;100779.84;;;22.68;39.95
52032;BME280;38044;45.148;39.604;2023-04-25T08:12:42;100889.44;;;22.68;42.39
52032;BME280;38044;45.148;39.604;2023-04-25T08:15:08;100899.16;;;21.85;43.24
52032;BME280;38044;45.148;39.604;2023-04-25T08:17:34;100898.16;;;21.22;43.52
52032;BME280;38044;45.148;39.604;2023-04-25T08:20:01;100862.56;;;20.71;44.82
52032;BME280;38044;45.148;39.604;2023-04-25T08:22:29;100823.69;;;21.09;43.78
52032;BME280;38044;45.148;39.604;2023-04-25T08:24:55;100890.81;;;22.36;41.25
52032;BME280;38044;45.148;39.604;2023-04-25T08:27:21;100850.50;;;23.32;41.03
52032;BME280;38044;45.148;39.604;2023-04-25T08:29:47;100871.50;;;23.74;39.66
52032;BME280;38044;45.148;39.604;2023-04-25T08:32:13;100879.31;;;23.45;39.39
52032;BME280;38044;45.148;39.604;2023-04-25T08:34:39;100873.47;;;23.77;40.12
52032;BME280;38044;45.148;39.604;2023-04-25T08:37:08;100877.38;;;23.19;38.87
52032;BME280;38044;45.148;39.604;2023-04-25T08:39:36;100882.69;;;23.08;39.82
52032;BME280;38044;45.148;39.604;2023-04-25T08:42:05;100861.97;;;23.68;38.77
52032;BME280;38044;45.148;39.604;2023-04-25T08:44:34;100865.69;;;24.13;37.95
52032;BME280;38044;45.148;39.604;2023-04-25T08:47:03;100870.78;;;24.52;37.70
52032;BME280;38044;45.148;39.604;2023-04-25T08:49:31;100871.63;;;24.18;38.15
52032;BME280;38044;45.148;39.604;2023-04-25T08:52:00;100854.59;;;23.72;39.12
52032;BME280;38044;45.148;39.604;2023-04-25T08:54:27;100838.84;;;23.99;39.21
52032;BME280;38044;45.148;39.604;2023-04-25T08:56:54;100757.72;;;24.05;37.62
52032;BME280;38044;45.148;39.604;2023-04-25T08:59:22;100834.91;;;23.36;38.29
52032;BME280;38044;45.148;39.604;2023-04-25T09:01:49;100742.72;;;21.79;40.49
52032;BME280;38044;45.148;39.604;2023-04-25T09:04:15;100766.16;;;22.68;40.45
52032;BME280;38044;45.148;39.604;2023-04-25T09:06:41;100874.25;;;23.21;39.94
52032;BME280;38044;45.148;39.604;2023-04-25T09:09:08;100848.00;;;23.20;40.47
52032;BME280;38044;45.148;39.604;2023-04-25T09:11:36;100835.59;;;23.03;39.27
52032;BME280;38044;45.148;39.604;2023-04-25T09:14:15;100840.63;;;23.24;39.65
52032;BME280;38044;45.148;39.604;2023-04-25T09:19:32;100742.63;;;23.21;38.33
52032;BME280;38044;45.148;39.604;2023-04-25T09:22:00;100834.41;;;23.87;38.69
52032;BME280;38044;45.148;39.604;2023-04-25T09:26:59;100860.19;;;24.13;38.61
52032;BME280;38044;45.148;39.604;2023-04-25T09:29:32;100815.97;;;23.88;38.86
52032;BME280;38044;45.148;39.604;2023-04-25T09:32:15;100834.44;;;24.69;37.77
52032;BME280;38044;45.148;39.604;2023-04-25T09:34:43;100804.16;;;24.21;37.08
52032;BME280;38044;45.148;39.604;2023-04-25T09:37:10;100855.94;;;24.19;38.60
52032;BME280;38044;45.148;39.604;2023-04-25T09:39:37;100855.81;;;24.45;37.79
52032;BME280;38044;45.148;39.604;2023-04-25T09:42:04;100847.25;;;24.50;38.37
52032;BME280;38044;45.148;39.604;2023-04-25T09:44:30;100752.63;;;23.70;37.82
52032;BME280;38044;45.148;39.604;2023-04-25T09:46:56;100856.44;;;24.32;37.35
52032;BME280;38044;45.148;39.604;2023-04-25T09:49:23;100856.69;;;24.16;38.24
52032;BME280;38044;45.148;39.604;2023-04-25T09:51:58;100754.03;;;23.90;38.28
52032;BME280;38044;45.148;39.604;2023-04-25T09:54:25;100705.31;;;23.46;37.87
52032;BME280;38044;45.148;39.604;2023-04-25T09:56:54;100809.59;;;24.14;36.62
52032;BME280;38044;45.148;39.604;2023-04-25T09:59:20;100863.03;;;24.23;38.24
52032;BME280;38044;45.148;39.604;2023-04-25T10:01:49;100869.72;;;23.32;38.89
52032;BME280;38044;45.148;39.604;2023-04-25T10:04:21;100868.69;;;22.90;39.12
52032;BME280;38044;45.148;39.604;2023-04-25T10:06:49;100759.84;;;21.56;40.66
52032;BME280;38044;45.148;39.604;2023-04-25T10:09:16;100733.97;;;20.96;41.04
52032;BME280;38044;45.148;39.604;2023-04-25T10:11:46;100736.81;;;20.52;42.29
52032;BME280;38044;45.148;39.604;2023-04-25T10:14:16;100851.63;;;21.03;42.40
52032;BME280;38044;45.148;39.604;2023-04-25T10:16:42;100810.25;;;20.69;42.48
52032;BME280;38044;45.148;39.604;2023-04-25T10:19:09;100843.38;;;20.83;42.74
52032;BME280;38044;45.148;39.604;2023-04-25T10:21:44;100815.00;;;20.72;43.11
52032;BME280;38044;45.148;39.604;2023-04-25T10:24:12;100813.66;;;20.66;42.84
52032;BME280;38044;45.148;39.604;2023-04-25T10:26:38;100871.19;;;21.05;44.01
52032;BME280;38044;45.148;39.604;2023-04-25T10:29:04;100841.91;;;21.05;43.17
52032;BME280;38044;45.148;39.604;2023-04-25T10:31:30;100862.88;;;21.17;42.07
52032;BME280;38044;45.148;39.604;2023-04-25T10:33:57;100803.53;;;20.66;42.92
52032;BME280;38044;45.148;39.604;2023-04-25T10:36:24;100868.81;;;20.87;42.72
52032;BME280;38044;45.148;39.604;2023-04-25T10:38:52;100846.78;;;20.64;42.81
52032;BME280;38044;45.148;39.604;2023-04-25T10:41:20;100812.22;;;20.40;43.64
52032;BME280;38044;45.148;39.604;2023-04-25T10:43:49;100819.88;;;20.51;44.79
52032;BME280;38044;45.148;39.604;2023-04-25T10:46:23;100757.34;;;20.14;43.42
52032;BME280;38044;45.148;39.604;2023-04-25T10:51:32;100826.84;;;20.32;43.96
52032;BME280;38044;45.148;39.604;2023-04-25T10:54:05;100853.44;;;20.35;42.50
52032;BME280;38044;45.148;39.604;2023-04-25T10:59:12;100819.94;;;20.22;42.57
52032;BME280;38044;45.148;39.604;2023-04-25T11:01:43;100845.41;;;20.42;42.83
52032;BME280;38044;45.148;39.604;2023-04-25T11:04:28;100844.09;;;20.36;43.88
52032;BME280;38044;45.148;39.604;2023-04-25T11:06:58;100857.75;;;20.36;43.97
52032;BME280;38044;45.148;39.604;2023-04-25T11:09:26;100848.94;;;20.43;43.40
52032;BME280;38044;45.148;39.604;2023-04-25T11:11:56;100759.44;;;19.89;43.47
52032;BME280;38044;45.148;39.604;2023-04-25T11:14:22;100858.13;;;20.51;43.67
52032;BME280;38044;45.148;39.604;2023-04-25T11:16:54;100808.59;;;20.20;43.35
52032;BME280;38044;45.148;39.604;2023-04-25T11:19:21;100826.31;;;20.42;44.15
52032;BME280;38044;45.148;39.604;2023-04-25T11:21:48;100865.63;;;20.54;43.43
52032;BME280;38044;45.148;39.604;2023-04-25T11:24:16;100850.88;;;20.27;44.28
52032;BME280;38044;45.148;39.604;2023-04-25T11:26:46;100841.19;;;20.29;43.88
52032;BME280;38044;45.148;39.604;2023-04-25T11:29:14;100731.75;;;19.46;43.18
52032;BME280;38044;45.148;39.604;2023-04-25T11:31:46;100849.25;;;20.25;43.54
52032;BME280;38044;45.148;39.604;2023-04-25T11:34:11;100856.47;;;20.18;43.01
52032;BME280;38044;45.148;39.604;2023-04-25T11:36:42;100710.22;;;19.29;43.47
52032;BME280;38044;45.148;39.604;2023-04-25T11:39:07;100758.41;;;19.53;43.67
52032;BME280;38044;45.148;39.604;2023-04-25T11:41:33;100738.22;;;19.42;43.95
52032;BME280;38044;45.148;39.604;2023-04-25T11:43:59;100858.59;;;19.96;44.15
52032;BME280;38044;45.148;39.604;2023-04-25T11:46:25;100816.66;;;19.73;43.76
52032;BME280;38044;45.148;39.604;2023-04-25T11:48:51;100858.28;;;19.86;43.46
52032;BME280;38044;45.148;39.604;2023-04-25T11:51:17;100845.50;;;19.74;43.63
52032;BME280;38044;45.148;39.604;2023-04-25T11:53:44;100806.78;;;19.56;43.67
52032;BME280;38044;45.148;39.604;2023-04-25T11:56:11;100708.38;;;18.93;43.93
52032;BME280;38044;45.148;39.604;2023-04-25T12:01:32;100811.22;;;19.61;43.45
52032;BME280;38044;45.148;39.604;2023-04-25T12:04:16;100837.59;;;19.69;43.95
52032;BME280;38044;45.148;39.604;2023-04-25T12:06:43;100842.53;;;19.79;45.67
52032;BME280;38044;45.148;39.604;2023-04-25T12:09:11;100833.09;;;19.76;43.92
52032;BME280;38044;45.148;39.604;2023-04-25T12:11:42;100700.81;;;18.86;44.00
52032;BME280;38044;45.148;39.604;2023-04-25T12:14:12;100835.41;;;19.62;43.47
52032;BME280;38044;45.148;39.604;2023-04-25T12:16:46;100817.28;;;19.42;44.81
52032;BME280;38044;45.148;39.604;2023-04-25T12:19:16;100724.19;;;18.75;45.00
52032;BME280;38044;45.148;39.604;2023-04-25T12:21:43;100719.88;;;18.86;45.10
52032;BME280;38044;45.148;39.604;2023-04-25T12:24:24;100677.66;;;18.55;44.71
52032;BME280;38044;45.148;39.604;2023-04-25T12:27:05;100802.19;;;19.32;45.29
52032;BME280;38044;45.148;39.604;2023-04-25T12:29:32;100836.13;;;19.47;44.71
52032;BME280;38044;45.148;39.604;2023-04-25T12:31:59;100827.59;;;19.48;44.47
52032;BME280;38044;45.148;39.604;2023-04-25T12:34:27;100770.81;;;18.98;44.45
52032;BME280;38044;45.148;39.604;2023-04-25T12:36:54;100839.44;;;19.28;44.75
52032;BME280;38044;45.148;39.604;2023-04-25T12:39:21;100838.53;;;19.24;45.21
52032;BME280;38044;45.148;39.604;2023-04-25T12:41:48;100795.19;;;19.06;45.30
52032;BME280;38044;45.148;39.604;2023-04-25T12:44:14;100681.41;;;18.26;45.12
52032;BME280;38044;45.148;39.604;2023-04-25T12:46:41;100819.72;;;19.06;46.38
52032;BME280;38044;45.148;39.604;2023-04-25T12:49:07;100826.53;;;19.12;46.28
52032;BME280;38044;45.148;39.604;2023-04-25T12:51:36;100799.75;;;18.90;45.93
52032;BME280;38044;45.148;39.604;2023-04-25T12:54:04;100710.31;;;18.18;45.30